Time;durP1;ratioP1;P1;durP2;ratioP2;P2;SDS_P1;SDS_P2;PMS_P1;PMS_P2;Temp;Humidity;BMP_temperature;BMP_pressure;BME280_temperature;BME280_humidity;BME280_pressure;Samples;Min_cycle;Max_cycle;Signal;HPM_P1;HPM_P2
2023/06/20 00:01:32;;;;;;;8.00;5.85;;;;;;;20.82;55.62;101110.38;5047242;28;20432;-74
2023/06/20 00:03:57;;;;;;;7.03;5.10;;;;;;;20.80;55.63;101112.50;5047037;28;20411;-74
2023/06/20 00:06:22;;;;;;;11.35;5.80;;;;;;;20.80;55.30;101102.53;5047413;28;20920;-75
2023/06/20 00:08:48;;;;;;;7.73;5.50;;;;;;;20.85;55.36;101109.94;5047790;28;20749;-75
2023/06/20 00:11:14;;;;;;;6.50;5.13;;;;;;;20.83;55.31;101103.13;5047052;28;20423;-75
2023/06/20 00:13:43;;;;;;;10.07;5.70;;;;;;;20.84;55.29;101108.28;5047769;28;20401;-75
2023/06/20 00:16:11;;;;;;;9.38;5.63;;;;;;;20.94;55.01;101115.81;5045224;28;20405;-75
2023/06/20 00:18:37;;;;;;;9.13;5.88;;;;;;;21.04;54.67;101113.38;5045347;28;20428;-75
2023/06/20 00:21:03;;;;;;;9.13;5.45;;;;;;;21.07;54.43;101114.78;5046201;28;20873;-75
2023/06/20 00:23:32;;;;;;;7.05;5.60;;;;;;;21.15;54.13;101114.47;5046035;28;20466;-74
2023/06/20 00:25:58;;;;;;;6.82;5.30;;;;;;;21.30;53.57;101114.88;5046259;28;20463;-75
2023/06/20 00:28:23;;;;;;;7.20;5.38;;;;;;;21.39;53.22;101120.72;5046380;28;20948;-75
2023/06/20 00:30:49;;;;;;;8.37;5.53;;;;;;;21.46;53.05;101120.66;5046466;28;20477;-75
2023/06/20 00:33:15;;;;;;;6.40;5.40;;;;;;;21.45;52.88;101125.22;5046570;28;20407;-75
2023/06/20 00:35:40;;;;;;;6.80;5.40;;;;;;;21.48;52.80;101123.94;5046344;28;20389;-74
2023/06/20 00:38:06;;;;;;;8.40;5.40;;;;;;;21.47;53.03;101120.41;5046273;28;21239;-75
2023/06/20 00:40:32;;;;;;;7.20;5.28;;;;;;;21.31;53.10;101108.41;5046862;28;20450;-75
2023/06/20 00:42:58;;;;;;;7.18;5.30;;;;;;;21.26;53.49;101110.97;5046456;28;20897;-75
2023/06/20 00:45:35;;;;;;;8.37;5.47;;;;;;;21.11;54.10;101119.50;5046154;28;20396;-75
2023/06/20 00:48:03;;;;;;;7.40;5.70;;;;;;;20.94;54.67;101115.81;5046660;28;20487;-75
2023/06/20 00:50:30;;;;;;;7.75;5.38;;;;;;;20.86;54.78;101111.56;5045990;28;20459;-75
2023/06/20 00:53:01;;;;;;;7.32;5.22;;;;;;;20.84;54.98;101119.06;5046657;28;20384;-75
2023/06/20 00:55:28;;;;;;;7.43;5.18;;;;;;;20.80;55.03;101118.69;5046679;28;20385;-74
2023/06/20 00:57:58;;;;;;;8.35;5.43;;;;;;;20.59;55.72;101122.66;5045816;28;20901;-74
2023/06/20 01:00:28;;;;;;;7.83;5.50;;;;;;;20.70;55.27;101120.28;5045857;28;20392;-75
2023/06/20 01:03:04;;;;;;;9.25;5.60;;;;;;;20.75;55.18;101123.94;5045831;28;20381;-74
2023/06/20 01:05:30;;;;;;;6.97;5.13;;;;;;;20.73;55.02;101114.44;5029381;28;20381;-74
2023/06/20 01:08:36;;;;;;;7.88;5.40;;;;;;;20.67;55.36;101118.03;5045847;28;20392;-74
2023/06/20 01:11:17;;;;;;;7.53;5.50;;;;;;;20.67;55.45;101123.41;5045412;28;20515;-75
2023/06/20 01:13:48;;;;;;;5.95;5.22;;;;;;;20.75;55.02;101117.72;5045497;28;20925;-75
2023/06/20 01:16:27;;;;;;;7.25;5.28;;;;;;;20.68;55.32;101119.69;5046481;28;20613;-75
2023/06/20 01:19:03;;;;;;;7.15;5.43;;;;;;;20.66;55.36;101128.00;5047645;28;20836;-75
2023/06/20 01:21:35;;;;;;;6.72;5.93;;;;;;;20.61;55.50;101114.38;5046769;28;20425;-75
2023/06/20 01:24:08;;;;;;;7.85;5.70;;;;;;;20.65;55.23;101112.06;5046075;28;20443;-74
2023/06/20 01:26:34;;;;;;;8.90;5.30;;;;;;;20.64;55.21;101105.03;5045328;28;20392;-75
2023/06/20 01:29:13;;;;;;;8.98;5.65;;;;;;;20.72;54.94;101110.91;5044862;28;20404;-75
2023/06/20 01:31:44;;;;;;;6.67;5.37;;;;;;;20.74;54.70;101102.59;5045709;28;20396;-74
2023/06/20 01:34:20;;;;;;;9.32;5.50;;;;;;;20.76;54.63;101095.97;5027715;28;20392;-74
2023/06/20 01:36:59;;;;;;;6.47;5.10;;;;;;;20.71;54.75;101100.38;5044882;28;20407;-75
2023/06/20 01:39:52;;;;;;;7.90;5.20;;;;;;;20.78;54.61;101099.25;5044885;28;20388;-75
2023/06/20 01:42:23;;;;;;;9.68;5.65;;;;;;;20.85;54.27;101093.75;5034721;28;20512;-75
2023/06/20 01:44:51;;;;;;;6.57;5.00;;;;;;;20.86;54.14;101095.41;5044509;28;20792;-75
2023/06/20 01:47:19;;;;;;;9.13;5.65;;;;;;;20.73;54.63;101088.31;5045298;28;20389;-75
2023/06/20 01:49:48;;;;;;;6.00;5.40;;;;;;;20.71;54.68;101095.00;5032547;28;20408;-75
2023/06/20 01:52:16;;;;;;;7.38;5.30;;;;;;;20.76;54.66;101097.81;5044050;28;20384;-74
2023/06/20 01:54:46;;;;;;;9.40;5.45;;;;;;;20.73;54.96;101101.78;5026953;28;21108;-74
2023/06/20 01:57:13;;;;;;;8.30;5.63;;;;;;;20.75;54.64;101097.00;5044845;28;20407;-75
2023/06/20 01:59:41;;;;;;;7.60;5.45;;;;;;;20.82;54.44;101094.22;5044373;28;20393;-75
2023/06/20 02:02:07;;;;;;;6.15;5.15;;;;;;;20.85;54.50;101098.31;5044981;28;20658;-75
2023/06/20 02:04:34;;;;;;;7.63;5.55;;;;;;;20.79;54.70;101102.75;5044373;28;20388;-75
2023/06/20 02:07:02;;;;;;;9.38;5.70;;;;;;;20.71;54.97;101103.91;5044568;28;20911;-75
2023/06/20 02:09:28;;;;;;;9.85;5.80;;;;;;;20.66;55.24;101100.25;5044801;28;20412;-75
2023/06/20 02:11:55;;;;;;;6.95;5.60;;;;;;;20.57;55.22;101089.75;5044959;28;20385;-75
2023/06/20 02:14:21;;;;;;;8.50;5.65;;;;;;;20.66;55.25;101105.63;5023279;28;20394;-75
2023/06/20 02:16:48;;;;;;;7.80;5.68;;;;;;;20.60;55.35;101108.16;5043960;28;20452;-75
2023/06/20 02:19:14;;;;;;;8.73;5.33;;;;;;;20.51;55.65;101105.97;5043849;28;20389;-75
2023/06/20 02:21:42;;;;;;;8.82;5.32;;;;;;;20.44;55.85;101111.47;5028199;28;20754;-75
2023/06/20 02:24:11;;;;;;;8.00;5.10;;;;;;;20.34;56.21;101111.97;5039624;28;20487;-75
2023/06/20 02:26:41;;;;;;;9.90;5.50;;;;;;;20.33;56.33;101110.34;5043889;28;20484;-75
2023/06/20 02:29:09;;;;;;;8.98;5.80;;;;;;;20.37;56.27;101108.84;5044888;28;20388;-75
2023/06/20 02:31:46;;;;;;;8.65;5.82;;;;;;;20.41;56.31;101117.28;5044444;28;20475;-75
2023/06/20 02:34:15;;;;;;;7.20;5.50;;;;;;;20.35;56.39;101113.63;5043922;28;20396;-75
2023/06/20 02:36:43;;;;;;;9.52;5.60;;;;;;;20.41;56.21;101125.38;5044429;28;20876;-75
2023/06/20 02:39:08;;;;;;;8.00;5.45;;;;;;;20.40;56.29;101110.25;5044393;28;20393;-75
2023/06/20 02:41:34;;;;;;;9.23;5.43;;;;;;;20.39;56.22;101114.00;5043612;28;20394;-74
2023/06/20 02:43:59;;;;;;;6.78;5.40;;;;;;;20.39;56.30;101114.00;5043781;28;20530;-74
2023/06/20 02:46:47;;;;;;;7.20;5.47;;;;;;;20.38;56.51;101120.44;5044189;28;20415;-74
2023/06/20 02:49:23;;;;;;;7.00;5.27;;;;;;;20.37;56.47;101122.31;5043870;28;20377;-74
2023/06/20 02:52:17;;;;;;;8.07;5.30;;;;;;;20.32;56.81;101121.34;5044629;28;20384;-74
2023/06/20 02:54:55;;;;;;;6.30;4.85;;;;;;;20.17;57.36;101122.53;5041906;28;20392;-75
2023/06/20 02:57:21;;;;;;;7.82;5.13;;;;;;;20.19;57.34;101115.06;5043482;28;20449;-75
2023/06/20 02:59:54;;;;;;;8.48;5.13;;;;;;;20.34;57.06;101130.00;5044520;28;20381;-75
2023/06/20 03:02:20;;;;;;;8.27;5.05;;;;;;;20.38;57.03;101137.44;5043662;28;21149;-74
2023/06/20 03:04:47;;;;;;;7.95;4.90;;;;;;;20.38;57.01;101139.28;5039122;28;20408;-74
2023/06/20 03:07:15;;;;;;;6.90;5.37;;;;;;;20.41;57.05;101141.53;5044190;28;20887;-75
2023/06/20 03:09:42;;;;;;;9.63;5.53;;;;;;;20.26;57.70;101141.91;5043726;28;20408;-74
2023/06/20 03:12:08;;;;;;;6.80;5.57;;;;;;;20.25;57.84;101151.84;5044271;28;20986;-74
2023/06/20 03:14:33;;;;;;;7.55;5.65;;;;;;;20.21;57.88;101153.34;5043772;28;20385;-74
2023/06/20 03:16:59;;;;;;;13.97;5.37;;;;;;;20.39;57.45;101157.09;5043400;28;20462;-74
2023/06/20 03:19:25;;;;;;;6.97;5.47;;;;;;;20.42;57.43;101157.47;5043486;28;20910;-74
2023/06/20 03:21:50;;;;;;;7.28;5.47;;;;;;;20.54;57.16;101167.47;5043473;28;20392;-74
2023/06/20 03:24:16;;;;;;;7.13;5.27;;;;;;;20.57;56.98;101161.66;5042715;28;20389;-74
2023/06/20 03:26:42;;;;;;;9.75;6.25;;;;;;;20.68;56.81;101162.78;5042824;28;20388;-73
2023/06/20 03:29:08;;;;;;;7.72;5.57;;;;;;;20.59;56.89;101156.84;5043099;28;20399;-74
2023/06/20 03:31:33;;;;;;;8.67;5.70;;;;;;;20.41;57.48;101152.31;5043722;28;20380;-75
2023/06/20 03:33:59;;;;;;;8.13;5.32;;;;;;;20.37;57.80;101143.84;5043120;28;20865;-75
2023/06/20 03:36:24;;;;;;;10.90;5.53;;;;;;;20.44;57.60;101143.78;5043254;28;20385;-75
2023/06/20 03:38:50;;;;;;;10.00;5.23;;;;;;;20.44;57.39;101136.50;5035355;28;20412;-75
2023/06/20 03:41:15;;;;;;;8.30;5.60;;;;;;;20.41;57.65;101136.13;5032387;28;20384;-75
2023/06/20 03:43:41;;;;;;;10.23;5.73;;;;;;;20.42;57.60;101138.63;5042949;28;20385;-75
2023/06/20 03:46:06;;;;;;;9.20;5.03;;;;;;;20.43;57.53;101134.84;5042783;28;20404;-75
2023/06/20 03:48:32;;;;;;;10.05;5.88;;;;;;;20.47;57.71;101142.50;5038947;28;20402;-75
2023/06/20 03:50:57;;;;;;;12.60;6.10;;;;;;;20.53;57.62;101141.59;5026039;28;20486;-75
2023/06/20 03:53:22;;;;;;;8.97;5.50;;;;;;;20.50;57.71;101155.53;5033046;28;20770;-75
2023/06/20 03:55:48;;;;;;;8.90;5.60;;;;;;;20.53;57.55;101149.69;5033754;28;20799;-74
2023/06/20 03:58:13;;;;;;;11.00;5.68;;;;;;;20.57;57.42;101151.69;5043430;28;20473;-73
2023/06/20 04:00:39;;;;;;;9.67;5.60;;;;;;;20.66;57.20;101154.13;5042760;28;20396;-74
2023/06/20 04:03:04;;;;;;;8.98;5.53;;;;;;;20.79;56.86;101149.38;5044968;28;20396;-75
2023/06/20 04:05:30;;;;;;;7.53;5.37;;;;;;;20.79;56.75;101154.75;5045140;28;20472;-75
2023/06/20 04:07:55;;;;;;;9.87;5.60;;;;;;;20.89;56.71;101158.81;5045023;28;21012;-74
2023/06/20 04:10:21;;;;;;;11.85;6.40;;;;;;;20.96;56.49;101148.75;5026436;28;20932;-74
2023/06/20 04:12:46;;;;;;;8.43;5.83;;;;;;;20.93;56.52;101143.81;5045360;28;20388;-75
2023/06/20 04:15:12;;;;;;;9.63;5.83;;;;;;;21.00;56.42;101153.44;5045250;28;20384;-75
2023/06/20 04:17:39;;;;;;;9.85;5.55;;;;;;;21.02;56.50;101158.63;5045702;28;20416;-76
2023/06/20 04:20:14;;;;;;;11.70;5.47;;;;;;;20.96;56.57;101160.34;5046860;28;20380;-75
2023/06/20 04:22:44;;;;;;;7.82;5.60;;;;;;;20.97;56.67;101153.91;5046024;28;21001;-75
2023/06/20 04:25:10;;;;;;;11.83;6.17;;;;;;;21.08;56.37;101162.25;5031570;28;20385;-74
2023/06/20 04:27:36;;;;;;;11.00;6.15;;;;;;;20.98;56.73;101163.63;5046037;28;20377;-75
2023/06/20 04:30:01;;;;;;;7.10;5.63;;;;;;;20.81;57.13;101162.63;5044428;28;20417;-75
2023/06/20 04:32:26;;;;;;;9.37;5.70;;;;;;;20.78;57.34;101165.78;5045242;28;20392;-75
2023/06/20 04:34:52;;;;;;;8.43;5.83;;;;;;;20.87;57.02;101160.88;5027953;28;20393;-75
2023/06/20 04:37:19;;;;;;;8.88;5.90;;;;;;;20.85;57.02;101173.75;5044923;28;20876;-75
2023/06/20 04:39:45;;;;;;;10.80;5.55;;;;;;;20.72;57.55;101183.66;5044893;28;20480;-75
2023/06/20 04:42:10;;;;;;;8.13;5.30;;;;;;;20.72;57.52;101189.03;5043681;28;20825;-76
2023/06/20 04:44:36;;;;;;;7.23;5.03;;;;;;;20.46;58.19;101192.03;5045470;28;20489;-76
2023/06/20 04:47:02;;;;;;;10.00;5.90;;;;;;;20.33;58.83;101201.03;5044708;28;21003;-75
2023/06/20 04:49:28;;;;;;;8.35;5.28;;;;;;;20.55;58.25;101191.50;5044051;28;20865;-75
2023/06/20 04:51:53;;;;;;;9.38;6.25;;;;;;;20.57;58.00;101185.88;5043665;28;20484;-75
2023/06/20 04:54:19;;;;;;;12.07;6.30;;;;;;;20.64;57.90;101188.53;5037980;28;20374;-76
2023/06/20 04:56:45;;;;;;;12.30;6.72;;;;;;;20.77;57.53;101188.38;5037468;28;20793;-75
2023/06/20 04:59:11;;;;;;;12.48;6.40;;;;;;;20.97;56.87;101191.63;5044201;28;20395;-75
2023/06/20 05:01:37;;;;;;;10.53;5.90;;;;;;;20.99;56.88;101196.78;5043818;28;20380;-75
2023/06/20 05:04:03;;;;;;;10.63;5.78;;;;;;;21.03;56.76;101200.69;5043254;28;20392;-75
2023/06/20 05:06:29;;;;;;;10.97;5.97;;;;;;;21.11;56.64;101204.94;5042273;28;20384;-75
2023/06/20 05:08:55;;;;;;;9.52;5.95;;;;;;;21.15;56.38;101206.13;5042709;28;20645;-75
2023/06/20 05:11:20;;;;;;;15.70;6.27;;;;;;;21.24;56.36;101222.81;5043233;28;20830;-75
2023/06/20 05:13:46;;;;;;;8.27;5.40;;;;;;;21.19;56.30;101220.78;5046180;28;20388;-75
2023/06/20 05:16:11;;;;;;;10.97;5.50;;;;;;;20.97;56.78;101213.19;5045399;28;20377;-75
2023/06/20 05:18:37;;;;;;;10.03;6.20;;;;;;;21.08;56.40;101214.28;5044127;28;20397;-75
2023/06/20 05:21:02;;;;;;;6.63;5.90;;;;;;;21.27;56.03;101215.09;5044404;28;20935;-76
2023/06/20 05:23:28;;;;;;;7.60;5.50;;;;;;;21.32;55.69;101225.16;5043191;28;20912;-75
2023/06/20 05:25:54;;;;;;;7.53;5.30;;;;;;;21.30;56.00;101220.03;5043479;28;20387;-76
2023/06/20 05:28:19;;;;;;;10.18;6.00;;;;;;;21.51;55.68;101215.19;5043611;28;20392;-75
2023/06/20 05:30:45;;;;;;;7.38;5.78;;;;;;;21.54;55.72;101207.47;5039712;28;20411;-76
2023/06/20 05:33:10;;;;;;;7.17;5.47;;;;;;;21.62;55.37;101209.00;5032408;28;20396;-75
2023/06/20 05:35:35;;;;;;;12.53;6.20;;;;;;;21.75;55.12;101210.66;5043059;28;20464;-75
2023/06/20 05:38:03;;;;;;;9.80;5.90;;;;;;;21.77;55.17;101212.09;5043853;28;20383;-76
2023/06/20 05:40:29;;;;;;;9.25;5.70;;;;;;;21.82;55.06;101219.47;5043681;28;20377;-76
2023/06/20 05:42:54;;;;;;;7.50;5.65;;;;;;;21.86;54.75;101222.53;5043308;28;20376;-76
2023/06/20 05:45:20;;;;;;;8.47;5.30;;;;;;;21.95;54.62;101218.44;5043806;28;20373;-76
2023/06/20 05:47:45;;;;;;;8.17;5.20;;;;;;;21.91;54.71;101222.66;5043467;28;20376;-75
2023/06/20 05:50:11;;;;;;;10.40;5.73;;;;;;;21.96;54.65;101215.50;5053625;28;20400;-75
2023/06/20 05:52:36;;;;;;;10.80;6.00;;;;;;;22.11;54.51;101228.53;5063793;28;20415;-74
2023/06/20 05:55:03;;;;;;;9.37;5.77;;;;;;;22.14;54.56;101227.25;5063099;28;20440;-75
2023/06/20 05:57:29;;;;;;;8.75;5.85;;;;;;;22.43;54.12;101227.38;5058316;28;20466;-75
2023/06/20 05:59:54;;;;;;;8.33;5.83;;;;;;;22.61;53.60;101231.81;5056324;28;20390;-75
2023/06/20 06:02:21;;;;;;;8.73;5.77;;;;;;;22.66;53.52;101226.53;5046222;28;20473;-76
2023/06/20 06:04:47;;;;;;;9.00;6.10;;;;;;;22.82;53.23;101233.91;5041080;28;20385;-75
2023/06/20 06:07:13;;;;;;;9.55;6.07;;;;;;;22.91;53.35;101239.75;5044458;28;20376;-75
2023/06/20 06:09:38;;;;;;;8.57;6.13;;;;;;;23.01;53.15;101239.13;5043706;28;20756;-75
2023/06/20 06:12:04;;;;;;;8.43;6.05;;;;;;;23.06;52.96;101244.66;5050642;28;20383;-75
2023/06/20 06:14:30;;;;;;;8.88;6.03;;;;;;;23.22;52.87;101249.31;5064454;28;20375;-77
2023/06/20 06:16:56;;;;;;;8.30;6.00;;;;;;;23.36;52.46;101254.44;5050203;28;20566;-77
2023/06/20 06:19:22;;;;;;;9.85;6.30;;;;;;;23.34;52.41;101248.47;5052297;28;21108;-77
2023/06/20 06:21:47;;;;;;;9.27;6.20;;;;;;;23.37;52.73;101256.06;5040480;28;20381;-76
2023/06/20 06:24:13;;;;;;;9.65;6.20;;;;;;;23.55;52.41;101260.44;5044988;28;20459;-75
2023/06/20 06:26:39;;;;;;;10.85;6.22;;;;;;;23.75;52.28;101246.44;5046902;28;20424;-76
2023/06/20 06:29:04;;;;;;;10.63;6.70;;;;;;;23.94;51.91;101258.72;5054903;28;20934;-78
2023/06/20 06:31:33;;;;;;;11.10;6.50;;;;;;;24.09;52.25;101255.41;5049730;28;20503;-75
2023/06/20 06:34:00;;;;;;;9.80;5.80;;;;;;;24.17;51.86;101255.03;5044951;28;20412;-75
2023/06/20 06:36:28;;;;;;;12.77;6.65;;;;;;;24.33;51.35;101249.84;5044284;28;21251;-78
2023/06/20 06:38:54;;;;;;;10.77;6.00;;;;;;;24.51;51.21;101241.41;5042265;28;20407;-77
2023/06/20 06:41:21;;;;;;;9.90;5.87;;;;;;;24.75;50.62;101235.78;5042727;28;20380;-77
2023/06/20 06:43:47;;;;;;;10.10;5.65;;;;;;;25.02;50.23;101235.03;5045830;28;20385;-76
2023/06/20 06:46:12;;;;;;;9.13;5.97;;;;;;;25.16;49.96;101231.66;5025719;28;20390;-75
2023/06/20 06:48:38;;;;;;;9.32;6.00;;;;;;;25.35;49.77;101231.31;5043850;28;20881;-77
2023/06/20 06:51:04;;;;;;;11.20;6.27;;;;;;;25.47;49.36;101237.41;5044505;28;20443;-76
2023/06/20 06:53:29;;;;;;;9.30;5.67;;;;;;;25.53;49.21;101239.13;5044880;28;20399;-77
2023/06/20 06:55:55;;;;;;;9.88;6.15;;;;;;;25.58;48.96;101240.22;5038735;28;20477;-77
2023/06/20 06:58:20;;;;;;;11.47;5.80;;;;;;;25.56;49.37;101235.88;5034193;28;20489;-76
2023/06/20 07:00:46;;;;;;;10.27;6.40;;;;;;;25.78;49.41;101231.44;5024163;28;20385;-75
2023/06/20 07:03:11;;;;;;;9.23;6.10;;;;;;;25.96;48.80;101233.78;5038252;28;20382;-75
2023/06/20 07:05:37;;;;;;;10.02;5.70;;;;;;;26.12;48.76;101232.00;5041147;28;20391;-76
2023/06/20 07:08:04;;;;;;;7.70;5.50;;;;;;;26.35;48.41;101236.22;5019731;28;20451;-76
2023/06/20 07:10:29;;;;;;;7.65;5.60;;;;;;;26.59;47.95;101228.44;5031497;28;20416;-76
2023/06/20 07:12:55;;;;;;;8.03;5.90;;;;;;;26.75;47.95;101232.06;5037702;28;20395;-77
2023/06/20 07:15:20;;;;;;;10.27;6.10;;;;;;;26.97;47.42;101234.59;5035955;28;20398;-76
2023/06/20 07:17:46;;;;;;;17.80;13.63;;;;;;;27.01;46.91;101226.72;5040706;28;20435;-77
2023/06/20 07:20:11;;;;;;;10.20;7.30;;;;;;;27.02;46.83;101229.16;5036328;28;20404;-76
2023/06/20 07:22:37;;;;;;;8.27;5.93;;;;;;;27.03;46.62;101225.38;5035005;28;20386;-76
2023/06/20 07:25:04;;;;;;;8.57;5.95;;;;;;;27.11;46.76;101223.22;5033180;28;20396;-76
2023/06/20 07:27:29;;;;;;;9.75;6.40;;;;;;;27.32;46.21;101233.09;5038785;28;20422;-76
2023/06/20 07:29:55;;;;;;;10.57;6.33;;;;;;;27.35;46.27;101231.72;5043295;28;22209;-76
2023/06/20 07:32:21;;;;;;;7.40;6.40;;;;;;;27.42;46.24;101226.81;5043099;28;20399;-77
2023/06/20 07:34:48;;;;;;;9.30;6.82;;;;;;;27.35;46.07;101220.84;5032372;28;21268;-76
2023/06/20 07:37:14;;;;;;;10.93;6.68;;;;;;;27.37;46.26;101224.09;5046849;28;20422;-75
2023/06/20 07:39:42;;;;;;;10.80;6.72;;;;;;;27.44;46.03;101235.53;5046016;28;20400;-78
2023/06/20 07:42:11;;;;;;;8.50;6.45;;;;;;;27.52;45.87;101220.59;5041369;28;20393;-77
2023/06/20 07:44:36;;;;;;;16.48;7.88;;;;;;;27.54;45.84;101223.84;5035033;28;20403;-78
2023/06/20 07:47:02;;;;;;;12.40;6.85;;;;;;;27.82;45.76;101225.19;5027962;28;20442;-76
2023/06/20 07:49:30;;;;;;;14.93;12.03;;;;;;;27.91;45.36;101218.16;5035687;28;20368;-77
2023/06/20 07:51:56;;;;;;;11.68;7.20;;;;;;;27.90;45.39;101219.25;5042528;28;20376;-76
2023/06/20 07:54:21;;;;;;;9.98;6.97;;;;;;;27.95;45.17;101212.97;5039608;28;20893;-76
2023/06/20 07:56:47;;;;;;;10.82;6.72;;;;;;;27.97;44.45;101216.25;5042843;28;20423;-76
2023/06/20 07:59:12;;;;;;;8.83;6.63;;;;;;;27.95;44.67;101210.25;5043929;28;20757;-74
2023/06/20 08:01:38;;;;;;;10.70;7.37;;;;;;;28.17;44.39;101218.91;5041332;28;20411;-76
2023/06/20 08:04:03;;;;;;;13.50;7.23;;;;;;;28.38;43.86;101216.97;5043025;28;20398;-76
2023/06/20 08:06:29;;;;;;;14.77;11.70;;;;;;;28.47;44.30;101217.22;5044909;28;20922;-76
2023/06/20 08:08:54;;;;;;;11.75;6.90;;;;;;;28.58;43.88;101221.56;5043605;28;20392;-76
2023/06/20 08:11:21;;;;;;;8.02;6.50;;;;;;;28.82;43.65;101222.81;5045218;28;20920;-76
2023/06/20 08:13:46;;;;;;;9.63;6.90;;;;;;;28.96;43.30;101224.63;5033432;28;20411;-76
2023/06/20 08:16:12;;;;;;;9.30;7.80;;;;;;;29.09;43.13;101223.19;5046603;28;20377;-75
2023/06/20 08:18:37;;;;;;;9.60;6.47;;;;;;;29.30;43.15;101228.56;5040016;28;20409;-75
2023/06/20 08:21:03;;;;;;;7.07;6.38;;;;;;;29.49;42.40;101226.78;5043983;28;20935;-76
2023/06/20 08:23:28;;;;;;;9.38;6.88;;;;;;;29.55;42.60;101217.44;5043477;28;20441;-76
2023/06/20 08:25:55;;;;;;;10.33;6.73;;;;;;;29.61;42.49;101228.34;5044965;28;20599;-76
2023/06/20 08:28:24;;;;;;;10.18;6.53;;;;;;;29.68;42.40;101224.16;5043522;28;20848;-76
2023/06/20 08:30:50;;;;;;;7.63;6.53;;;;;;;29.73;42.46;101224.13;5042972;28;20484;-74
2023/06/20 08:33:16;;;;;;;10.23;6.47;;;;;;;29.88;42.00;101220.47;5041707;28;20530;-75
2023/06/20 08:35:41;;;;;;;9.10;5.93;;;;;;;30.09;41.30;101223.81;5043130;28;20497;-75
2023/06/20 08:38:07;;;;;;;11.20;6.57;;;;;;;30.28;41.28;101217.59;5040841;28;20389;-75
2023/06/20 08:40:34;;;;;;;8.33;5.87;;;;;;;30.24;40.32;101213.81;5043825;28;20391;-76
2023/06/20 08:43:00;;;;;;;9.27;6.00;;;;;;;30.31;40.51;101214.28;5045973;28;20376;-75
2023/06/20 08:45:27;;;;;;;10.37;6.17;;;;;;;30.24;39.88;101214.63;5047163;28;20399;-76
2023/06/20 08:47:58;;;;;;;10.45;5.80;;;;;;;30.28;39.19;101212.13;5043583;28;20386;-75
2023/06/20 08:50:28;;;;;;;9.43;6.50;;;;;;;30.53;39.21;101221.97;5044409;28;20865;-77
2023/06/20 08:52:55;;;;;;;7.50;6.00;;;;;;;30.87;39.13;101221.81;5041640;28;20396;-76
2023/06/20 08:55:21;;;;;;;7.60;5.50;;;;;;;30.87;38.62;101212.78;5040190;28;20499;-76
2023/06/20 08:57:47;;;;;;;8.32;6.20;;;;;;;30.74;39.10;101211.59;5042668;28;20396;-76
2023/06/20 09:00:17;;;;;;;10.77;6.23;;;;;;;30.91;38.39;101213.00;5040354;28;20389;-76
2023/06/20 09:02:42;;;;;;;10.07;6.40;;;;;;;31.11;37.66;101212.75;5042175;28;20666;-74
2023/06/20 09:05:08;;;;;;;7.57;5.97;;;;;;;31.11;37.58;101206.47;5041085;28;20438;-75
2023/06/20 09:07:38;;;;;;;9.07;5.93;;;;;;;31.20;38.60;101208.22;5025273;28;20385;-77
2023/06/20 09:10:09;;;;;;;6.97;5.97;;;;;;;31.31;37.69;101203.38;5043123;28;20412;-76
2023/06/20 09:12:48;;;;;;;8.40;5.80;;;;;;;31.35;37.31;101203.59;5042495;28;20443;-76
2023/06/20 09:15:19;;;;;;;7.80;5.97;;;;;;;31.31;37.20;101203.38;5043386;28;20889;-75
2023/06/20 09:17:48;;;;;;;6.97;5.43;;;;;;;31.27;36.50;101207.84;5033800;28;20539;-77
2023/06/20 09:20:14;;;;;;;9.43;5.75;;;;;;;31.43;36.65;101209.22;5039657;28;20392;-75
2023/06/20 09:22:40;;;;;;;8.10;6.00;;;;;;;31.47;36.47;101200.41;5040561;28;20427;-76
2023/06/20 09:25:10;;;;;;;9.25;5.72;;;;;;;31.41;37.08;101199.69;5024057;28;20384;-77
2023/06/20 09:27:41;;;;;;;6.78;6.07;;;;;;;31.37;36.65;101204.97;5040499;28;20485;-76
2023/06/20 09:30:07;;;;;;;8.02;5.63;;;;;;;31.45;36.98;101204.25;5042419;28;20412;-75
2023/06/20 09:32:40;;;;;;;8.45;6.13;;;;;;;31.58;36.33;101202.69;5041014;28;20889;-76
2023/06/20 09:35:07;;;;;;;6.55;5.22;;;;;;;31.57;36.04;101200.28;5038911;28;20419;-75
2023/06/20 09:37:39;;;;;;;9.23;6.20;;;;;;;31.70;36.44;101198.69;5041152;28;20389;-76
2023/06/20 09:40:12;;;;;;;6.95;4.93;;;;;;;31.77;36.75;101201.84;5039923;28;20405;-76
2023/06/20 09:42:39;;;;;;;7.20;5.50;;;;;;;31.76;36.56;101200.22;5039402;28;20662;-76
2023/06/20 09:45:06;;;;;;;7.05;5.72;;;;;;;31.81;35.96;101202.88;5040948;28;21194;-77
2023/06/20 09:47:35;;;;;;;10.30;5.88;;;;;;;32.00;35.38;101203.59;5042597;28;20393;-75
2023/06/20 09:50:06;;;;;;;7.10;5.60;;;;;;;32.03;35.01;101198.63;5042385;28;20469;-75
2023/06/20 09:52:43;;;;;;;6.95;5.65;;;;;;;31.96;35.10;101197.13;5040939;28;20864;-75
2023/06/20 09:55:14;;;;;;;7.78;5.60;;;;;;;31.87;35.32;101192.63;5038373;28;20391;-75
2023/06/20 09:57:47;;;;;;;7.85;5.70;;;;;;;31.81;35.65;101195.44;5042245;28;20384;-76
2023/06/20 10:00:17;;;;;;;8.88;5.07;;;;;;;32.01;35.73;101198.94;5042353;28;20537;-75
2023/06/20 10:02:47;;;;;;;6.53;5.10;;;;;;;32.08;35.89;101204.06;5044234;28;20722;-75
2023/06/20 10:05:17;;;;;;;9.55;4.88;;;;;;;32.19;35.85;101194.50;5042518;28;20388;-77
2023/06/20 10:07:45;;;;;;;7.53;5.43;;;;;;;32.25;35.22;101192.47;5041756;28;20385;-76
2023/06/20 10:10:12;;;;;;;8.10;5.43;;;;;;;32.25;35.16;101187.81;5041696;28;20400;-77
2023/06/20 10:12:40;;;;;;;7.95;5.20;;;;;;;32.27;34.58;101196.53;5042096;28;20728;-75
2023/06/20 10:15:09;;;;;;;10.07;6.18;;;;;;;32.05;35.00;101196.44;5026956;28;20461;-76
2023/06/20 10:17:39;;;;;;;7.18;5.38;;;;;;;31.85;34.96;101195.66;5040052;28;20519;-77
2023/06/20 10:20:09;;;;;;;8.75;5.45;;;;;;;31.94;35.43;101193.03;5039254;28;20392;-75
2023/06/20 10:22:48;;;;;;;8.50;5.72;;;;;;;31.99;35.07;101198.44;5039647;28;20828;-76
2023/06/20 10:25:17;;;;;;;9.75;5.50;;;;;;;31.85;34.29;101192.91;5041409;28;20401;-76
2023/06/20 10:27:58;;;;;;;9.70;5.50;;;;;;;31.73;34.29;101193.41;5042012;28;20491;-75
2023/06/20 10:30:55;;;;;;;9.43;5.32;;;;;;;31.76;34.27;101190.06;5038491;28;20410;-76
2023/06/20 10:33:32;;;;;;;6.65;4.95;;;;;;;31.80;33.58;101195.75;5034007;28;20412;-77
2023/06/20 10:36:08;;;;;;;12.02;5.35;;;;;;;31.89;33.65;101193.13;5040884;28;20402;-77
2023/06/20 10:38:38;;;;;;;7.33;5.00;;;;;;;31.85;34.64;101194.84;5042039;28;20400;-75
2023/06/20 10:41:08;;;;;;;8.20;5.35;;;;;;;32.04;34.11;101189.34;5042079;28;20948;-78
2023/06/20 10:43:53;;;;;;;10.60;5.47;;;;;;;32.24;34.33;101175.19;5036842;28;21203;-75
2023/06/20 10:46:21;;;;;;;7.97;5.15;;;;;;;32.40;34.51;101178.44;5039917;28;20451;-78
2023/06/20 10:48:47;;;;;;;7.40;5.10;;;;;;;32.43;33.98;101182.50;5041172;28;20504;-76
2023/06/20 10:51:12;;;;;;;7.40;4.97;;;;;;;32.58;34.23;101176.69;5040203;28;20416;-76
2023/06/20 10:53:38;;;;;;;9.45;5.60;;;;;;;32.69;33.62;101183.59;5040449;28;21235;-78
2023/06/20 10:56:04;;;;;;;7.73;5.30;;;;;;;32.79;33.81;101182.59;5041065;28;20635;-75
2023/06/20 10:58:29;;;;;;;7.60;5.10;;;;;;;32.87;33.53;101181.84;5041969;28;20395;-75
2023/06/20 11:00:55;;;;;;;6.53;4.80;;;;;;;32.88;33.28;101171.66;5026901;28;20501;-79
2023/06/20 11:03:23;;;;;;;6.95;5.10;;;;;;;32.89;32.90;101173.28;5040434;28;20396;-76
2023/06/20 11:05:54;;;;;;;5.72;4.90;;;;;;;32.81;33.39;101165.78;5038937;28;20423;-76
2023/06/20 11:08:26;;;;;;;6.05;4.70;;;;;;;33.00;32.31;101163.69;5046693;28;20399;-76
2023/06/20 11:10:55;;;;;;;6.15;4.82;;;;;;;33.10;31.71;101168.13;5044487;28;20405;-76
2023/06/20 11:13:23;;;;;;;7.03;4.72;;;;;;;33.01;30.78;101161.75;5044131;28;20400;-77
2023/06/20 11:15:48;;;;;;;5.13;4.18;;;;;;;32.87;29.54;101167.31;5044270;28;20734;-76
2023/06/20 11:18:14;;;;;;;5.50;3.80;;;;;;;32.57;27.89;101166.81;5043691;28;20462;-75
2023/06/20 11:20:41;;;;;;;5.40;4.10;;;;;;;32.21;27.59;101164.84;5026261;28;21018;-75
2023/06/20 11:23:09;;;;;;;5.05;3.53;;;;;;;32.46;27.92;101165.44;5041674;28;20889;-75
2023/06/20 11:25:36;;;;;;;4.40;3.40;;;;;;;32.58;27.83;101162.97;5027782;28;20468;-76
2023/06/20 11:28:10;;;;;;;4.65;3.67;;;;;;;32.68;27.36;101151.81;5042840;28;20392;-76